Time;durP1;ratioP1;P1;durP2;ratioP2;P2;SDS_P1;SDS_P2;PMS_P1;PMS_P2;Temp;Humidity;BMP_temperature;BMP_pressure;BME280_temperature;BME280_humidity;BME280_pressure;Samples;Min_cycle;Max_cycle;Signal;HPM_P1;HPM_P2
2021/01/01 00:00:04;;;;;;;274.53;154.30;;;;;;;;;;5284214;23;20232;-82
2021/01/01 00:03:07;;;;;;;285.30;158.00;;;;;;;;;;4890067;29;20248;-82
2021/01/01 00:05:58;;;;;;;293.47;165.03;;;;;;;;;;4875081;29;20201;-82
2021/01/01 00:09:32;;;;;;;259.57;135.30;;;;;;;;;;4877543;29;20214;-82
2021/01/01 00:15:58;;;;;;;218.47;116.90;;;;;;;;;;4876467;29;20298;-82
2021/01/01 00:20:01;;;;;;;198.90;111.57;;;;;;;;;;4871586;29;20221;-82
2021/01/01 00:27:03;;;;;;;189.20;109.67;;;;;;;;;;4858140;29;20226;-82
2021/01/01 00:29:42;;;;;;;201.87;113.67;;;;;;;;;;4826998;29;20743;-82
2021/01/01 00:40:12;;;;;;;174.97;96.33;;;;;;;;;;4871095;29;20206;-83
2021/01/01 00:42:54;;;;;;;174.30;96.03;;;;;;;;;;4854622;29;20742;-82
2021/01/01 00:45:42;;;;;;;179.33;97.97;;;;;;;;;;4838874;29;20216;-83
2021/01/01 00:48:25;;;;;;;185.43;95.43;;;;;;;;;;4839263;29;20225;-81
2021/01/01 00:51:04;;;;;;;188.67;102.47;;;;;;;;;;4845565;29;20213;-81
2021/01/01 01:13:32;;;;;;;172.20;96.50;;;;;;;;;;5690161;23;20188;-81
2021/01/01 01:16:11;;;;;;;177.07;98.93;;;;;;;;;;4859820;29;20236;-81
2021/01/01 01:18:57;;;;;;;161.50;91.60;;;;;;;;;;4892764;29;20660;-82
2021/01/01 01:21:47;;;;;;;160.83;87.30;;;;;;;;;;4916380;29;20193;-82
2021/01/01 01:24:30;;;;;;;149.33;86.77;;;;;;;;;;4879741;29;20208;-83
2021/01/01 01:34:17;;;;;;;110.00;60.50;;;;;;;;;;4891353;29;20224;-82
2021/01/01 06:15:36;;;;;;;15.43;8.77;;;;;;;;;;4880841;29;20248;-80
2021/01/01 06:18:15;;;;;;;12.70;7.93;;;;;;;;;;4850734;29;20209;-80
2021/01/01 06:20:49;;;;;;;13.27;8.47;;;;;;;;;;4867201;29;20663;-81
2021/01/01 06:45:45;;;;;;;15.30;9.43;;;;;;;;;;5476825;23;20242;-80
2021/01/01 06:48:37;;;;;;;15.37;8.83;;;;;;;;;;4857765;29;20216;-81
2021/01/01 06:51:14;;;;;;;14.83;9.63;;;;;;;;;;4856566;29;20200;-85
2021/01/01 06:53:46;;;;;;;16.87;8.80;;;;;;;;;;4855078;29;20222;-81
2021/01/01 06:56:25;;;;;;;14.63;9.10;;;;;;;;;;4822753;29;20254;-81
2021/01/01 06:59:08;;;;;;;16.40;9.63;;;;;;;;;;4829814;29;20195;-81
2021/01/01 07:12:16;;;;;;;15.13;9.20;;;;;;;;;;5877059;23;20192;-82
2021/01/01 07:14:48;;;;;;;18.17;10.37;;;;;;;;;;4811655;29;20235;-81
2021/01/01 07:17:19;;;;;;;15.90;9.80;;;;;;;;;;4848283;29;20211;-81
2021/01/01 07:19:51;;;;;;;15.57;9.93;;;;;;;;;;4814001;29;20211;-81
2021/01/01 07:22:22;;;;;;;18.90;11.30;;;;;;;;;;4813410;29;20714;-81
2021/01/01 07:24:52;;;;;;;21.20;12.23;;;;;;;;;;4800278;29;20268;-81
2021/01/01 07:31:14;;;;;;;19.80;11.23;;;;;;;;;;4791924;29;20188;-81
2021/01/01 07:49:43;;;;;;;21.97;12.47;;;;;;;;;;5871071;23;20181;-81
2021/01/01 07:57:08;;;;;;;19.70;11.93;;;;;;;;;;4916358;23;20699;-92
2021/01/01 07:59:36;;;;;;;23.07;12.90;;;;;;;;;;4826057;29;20255;-91
2021/01/01 08:02:04;;;;;;;20.13;11.73;;;;;;;;;;4815129;29;20224;-93
2021/01/01 08:04:32;;;;;;;22.13;13.40;;;;;;;;;;4830780;29;20236;-93
2021/01/01 08:07:02;;;;;;;20.53;11.67;;;;;;;;;;4828555;29;20242;-93
2021/01/01 08:09:30;;;;;;;21.67;12.30;;;;;;;;;;4814520;29;20234;-93
2021/01/01 08:12:04;;;;;;;20.93;13.53;;;;;;;;;;4813397;29;20239;-93
2021/01/01 08:14:34;;;;;;;21.40;12.77;;;;;;;;;;4828772;29;20221;-92
2021/01/01 08:59:10;;;;;;;11.70;7.10;;;;;;;;;;5877622;23;21577;-82
2021/01/01 09:01:42;;;;;;;14.57;8.37;;;;;;;;;;4825355;29;20242;-81
2021/01/01 09:04:14;;;;;;;12.53;7.53;;;;;;;;;;4809810;29;20580;-82
2021/01/01 09:06:57;;;;;;;12.23;6.67;;;;;;;;;;4815402;29;20219;-81
2021/01/01 09:10:22;;;;;;;10.13;6.40;;;;;;;;;;4806654;29;20242;-81
2021/01/01 09:12:53;;;;;;;9.33;5.80;;;;;;;;;;4823503;29;20229;-83
2021/01/01 09:15:35;;;;;;;9.53;6.17;;;;;;;;;;4807340;29;20315;-83
2021/01/01 09:18:08;;;;;;;9.73;5.83;;;;;;;;;;4805928;29;20203;-82
2021/01/01 09:20:42;;;;;;;9.30;6.20;;;;;;;;;;4814256;29;20556;-82
2021/01/01 09:23:16;;;;;;;10.23;6.10;;;;;;;;;;4813474;29;20230;-81
2021/01/01 09:25:47;;;;;;;10.97;5.97;;;;;;;;;;4821017;29;20203;-81
2021/01/01 09:28:20;;;;;;;10.53;6.30;;;;;;;;;;4820449;29;20593;-81
2021/01/01 09:30:55;;;;;;;10.17;5.77;;;;;;;;;;4809640;29;20203;-80
2021/01/01 09:33:27;;;;;;;11.43;5.87;;;;;;;;;;4810538;29;20258;-81
2021/01/01 09:35:58;;;;;;;10.97;6.47;;;;;;;;;;4813337;29;20227;-81
2021/01/01 09:38:30;;;;;;;8.33;5.70;;;;;;;;;;4823479;29;20208;-80
2021/01/01 09:41:01;;;;;;;9.57;5.90;;;;;;;;;;4806632;29;20574;-81
2021/01/01 09:43:33;;;;;;;10.90;6.13;;;;;;;;;;4803569;29;20737;-82
2021/01/01 09:46:14;;;;;;;10.17;6.10;;;;;;;;;;4836642;29;20207;-81
2021/01/01 09:48:45;;;;;;;10.97;6.23;;;;;;;;;;4811491;29;20210;-81
2021/01/01 09:51:17;;;;;;;10.27;6.20;;;;;;;;;;4822766;29;20251;-82
2021/01/01 09:53:49;;;;;;;10.17;5.57;;;;;;;;;;4808643;29;20756;-81
2021/01/01 09:56:21;;;;;;;9.07;5.60;;;;;;;;;;4810876;29;20270;-82
2021/01/01 09:58:52;;;;;;;8.27;5.03;;;;;;;;;;4831804;29;20242;-81
2021/01/01 10:01:28;;;;;;;7.23;5.03;;;;;;;;;;4840751;29;20218;-81
2021/01/01 10:03:59;;;;;;;6.43;3.90;;;;;;;;;;4818043;29;20241;-79
2021/01/01 10:06:31;;;;;;;6.90;4.00;;;;;;;;;;4821561;29;20207;-81
2021/01/01 10:09:04;;;;;;;5.20;3.70;;;;;;;;;;4813221;29;20210;-82
2021/01/01 10:11:37;;;;;;;7.63;4.40;;;;;;;;;;4803440;29;20227;-81
2021/01/01 10:14:09;;;;;;;6.10;4.20;;;;;;;;;;4810697;29;20239;-81
2021/01/01 10:16:43;;;;;;;4.67;3.57;;;;;;;;;;4834393;29;20218;-82
2021/01/01 10:19:15;;;;;;;5.40;3.43;;;;;;;;;;4832650;29;20215;-82
2021/01/01 10:28:49;;;;;;;8.57;4.40;;;;;;;;;;5078395;23;20226;-82
2021/01/01 10:31:23;;;;;;;5.40;3.73;;;;;;;;;;4832234;29;20207;-80
2021/01/01 10:33:55;;;;;;;6.90;3.93;;;;;;;;;;4854229;29;20589;-82
2021/01/01 10:36:32;;;;;;;5.27;3.80;;;;;;;;;;4868670;29;20617;-81
2021/01/01 10:39:05;;;;;;;5.57;3.83;;;;;;;;;;4835465;29;20219;-90
2021/01/01 10:41:38;;;;;;;6.63;4.07;;;;;;;;;;4834131;29;20199;-90
2021/01/01 10:44:09;;;;;;;5.50;3.90;;;;;;;;;;4834430;29;20200;-90
2021/01/01 10:46:40;;;;;;;5.33;3.80;;;;;;;;;;4849386;29;20186;-92
2021/01/01 10:49:12;;;;;;;5.67;3.90;;;;;;;;;;4845128;29;20672;-92
2021/01/01 10:51:43;;;;;;;5.30;4.07;;;;;;;;;;4825049;29;20221;-81
2021/01/01 10:54:16;;;;;;;5.63;3.97;;;;;;;;;;4813996;29;20198;-84
2021/01/01 10:56:47;;;;;;;7.40;4.10;;;;;;;;;;4828399;29;20231;-82
2021/01/01 10:59:25;;;;;;;5.47;3.60;;;;;;;;;;4813325;29;20720;-81
2021/01/01 11:01:57;;;;;;;5.57;3.73;;;;;;;;;;4813519;29;20237;-84
2021/01/01 11:04:30;;;;;;;6.33;4.10;;;;;;;;;;4839176;29;20628;-81
2021/01/01 11:07:02;;;;;;;6.27;4.33;;;;;;;;;;4815548;29;20237;-82
2021/01/01 11:09:34;;;;;;;5.03;3.90;;;;;;;;;;4814699;29;20245;-81
2021/01/01 11:12:07;;;;;;;5.90;4.20;;;;;;;;;;4811679;29;20235;-85
2021/01/01 11:14:58;;;;;;;4.77;3.60;;;;;;;;;;4809983;29;20207;-80
2021/01/01 12:25:47;;;;;;;8.97;4.97;;;;;;;;;;5607423;23;20238;-85
2021/01/01 12:28:22;;;;;;;8.83;4.73;;;;;;;;;;4859425;29;20234;-81
2021/01/01 12:30:54;;;;;;;7.77;4.60;;;;;;;;;;4831694;29;20669;-79
2021/01/01 12:33:30;;;;;;;7.33;4.93;;;;;;;;;;4830858;29;20230;-82
2021/01/01 12:36:02;;;;;;;6.90;4.20;;;;;;;;;;4830722;29;20562;-80
2021/01/01 12:38:33;;;;;;;8.40;5.47;;;;;;;;;;4830386;29;20195;-79
2021/01/01 12:41:04;;;;;;;7.33;4.40;;;;;;;;;;4827424;29;20203;-80
2021/01/01 12:43:36;;;;;;;7.07;4.43;;;;;;;;;;4827479;29;20234;-80
2021/01/01 12:46:09;;;;;;;8.63;4.90;;;;;;;;;;4835407;29;20218;-79
2021/01/01 12:48:41;;;;;;;7.93;4.60;;;;;;;;;;4846086;29;20224;-79
2021/01/01 12:51:31;;;;;;;6.80;4.23;;;;;;;;;;4852767;29;20206;-78
2021/01/01 12:54:04;;;;;;;5.83;4.43;;;;;;;;;;4816531;29;20211;-81
2021/01/01 12:56:38;;;;;;;6.40;4.10;;;;;;;;;;4839650;29;20233;-80
2021/01/01 12:59:10;;;;;;;8.37;4.83;;;;;;;;;;4827125;29;20202;-81
2021/01/01 13:01:42;;;;;;;6.00;3.80;;;;;;;;;;4820522;29;20210;-81
2021/01/01 13:04:43;;;;;;;6.93;4.20;;;;;;;;;;4830316;29;20214;-81
2021/01/01 13:07:15;;;;;;;7.93;4.60;;;;;;;;;;4827133;29;20674;-81
2021/01/01 13:09:47;;;;;;;6.53;4.37;;;;;;;;;;4826074;29;20588;-80
2021/01/01 13:12:18;;;;;;;7.83;4.13;;;;;;;;;;4831108;29;20222;-81
2021/01/01 13:14:51;;;;;;;7.67;4.93;;;;;;;;;;4832248;29;20199;-81
2021/01/01 13:17:22;;;;;;;7.63;4.60;;;;;;;;;;4853992;29;20218;-82
2021/01/01 13:19:53;;;;;;;7.97;4.87;;;;;;;;;;4841763;29;20398;-81
2021/01/01 13:22:25;;;;;;;8.17;4.63;;;;;;;;;;4840719;29;20226;-81
2021/01/01 13:24:56;;;;;;;7.07;4.60;;;;;;;;;;4849234;29;20203;-83
2021/01/01 13:27:27;;;;;;;7.43;4.50;;;;;;;;;;4809980;29;20663;-81
2021/01/01 13:30:00;;;;;;;7.30;5.03;;;;;;;;;;4810293;29;20540;-81
2021/01/01 13:32:32;;;;;;;6.87;4.33;;;;;;;;;;4809876;29;20231;-82
2021/01/01 13:35:05;;;;;;;6.53;3.93;;;;;;;;;;4824618;29;20221;-81
2021/01/01 13:37:38;;;;;;;5.93;4.13;;;;;;;;;;4809552;29;20229;-81
2021/01/01 13:40:10;;;;;;;6.90;4.13;;;;;;;;;;4834688;29;20233;-81
2021/01/01 13:42:42;;;;;;;6.30;4.37;;;;;;;;;;4843740;29;20233;-82
2021/01/01 13:45:15;;;;;;;7.63;4.70;;;;;;;;;;4846425;29;20206;-81
2021/01/01 13:47:45;;;;;;;6.50;4.50;;;;;;;;;;4847121;29;20197;-81
2021/01/01 13:50:17;;;;;;;5.70;4.00;;;;;;;;;;4847786;29;20186;-81
2021/01/01 13:52:53;;;;;;;4.30;3.10;;;;;;;;;;4861993;29;20229;-81
2021/01/01 13:55:23;;;;;;;6.67;4.40;;;;;;;;;;4855575;29;20591;-81
2021/01/01 13:57:54;;;;;;;6.27;3.97;;;;;;;;;;4852838;29;20696;-81
2021/01/01 14:00:27;;;;;;;6.13;4.17;;;;;;;;;;4862751;29;20225;-81
2021/01/01 14:02:58;;;;;;;6.03;3.80;;;;;;;;;;4863660;29;20214;-81
2021/01/01 14:05:29;;;;;;;4.93;3.77;;;;;;;;;;4854240;29;20230;-81
2021/01/01 14:08:01;;;;;;;5.33;3.47;;;;;;;;;;4826736;29;20230;-81
2021/01/01 14:10:32;;;;;;;6.13;4.17;;;;;;;;;;4844518;29;20218;-81
2021/01/01 14:13:04;;;;;;;5.60;4.03;;;;;;;;;;4829842;29;20238;-81
2021/01/01 14:15:35;;;;;;;6.90;4.40;;;;;;;;;;4847410;29;20677;-81
2021/01/01 14:18:06;;;;;;;6.93;4.27;;;;;;;;;;4832778;29;20234;-81
2021/01/01 14:20:37;;;;;;;7.27;4.60;;;;;;;;;;4832862;29;20206;-82
2021/01/01 14:23:07;;;;;;;6.67;4.53;;;;;;;;;;4855902;29;20241;-82
2021/01/01 14:25:41;;;;;;;6.20;4.03;;;;;;;;;;4861951;29;20233;-81
2021/01/01 14:28:11;;;;;;;7.00;4.20;;;;;;;;;;4844444;29;20241;-81
2021/01/01 14:30:44;;;;;;;6.20;4.20;;;;;;;;;;4832655;29;20213;-80
2021/01/01 14:33:15;;;;;;;9.23;5.27;;;;;;;;;;4832502;29;20230;-80
2021/01/01 14:35:47;;;;;;;6.20;4.23;;;;;;;;;;4845517;29;20233;-81
2021/01/01 14:38:18;;;;;;;6.30;4.70;;;;;;;;;;4850304;29;20249;-81
2021/01/01 14:40:51;;;;;;;5.50;3.37;;;;;;;;;;4850925;29;20197;-81
2021/01/01 14:43:25;;;;;;;6.67;3.93;;;;;;;;;;4850747;29;20289;-81
2021/01/01 14:45:58;;;;;;;5.53;3.93;;;;;;;;;;4850661;29;20208;-81
2021/01/01 14:48:29;;;;;;;6.20;3.77;;;;;;;;;;4850623;29;20214;-81
2021/01/01 14:51:02;;;;;;;8.70;4.57;;;;;;;;;;4867039;29;20826;-83
2021/01/01 14:53:33;;;;;;;6.00;4.10;;;;;;;;;;4868193;29;20222;-81
2021/01/01 14:56:05;;;;;;;5.60;4.10;;;;;;;;;;4851255;29;20695;-81
2021/01/01 14:58:36;;;;;;;6.47;3.87;;;;;;;;;;4851169;29;20228;-81
2021/01/01 15:01:10;;;;;;;6.17;4.30;;;;;;;;;;4850494;29;20576;-82
2021/01/01 15:03:43;;;;;;;5.23;3.60;;;;;;;;;;4851371;29;20226;-81
2021/01/01 15:06:18;;;;;;;6.77;4.03;;;;;;;;;;4852209;29;20198;-82
2021/01/01 15:08:53;;;;;;;6.07;4.03;;;;;;;;;;4850707;29;20212;-82
2021/01/01 15:11:24;;;;;;;5.90;3.50;;;;;;;;;;4851098;29;20717;-82
2021/01/01 15:13:56;;;;;;;5.67;3.67;;;;;;;;;;4850816;29;20617;-81
2021/01/01 15:16:30;;;;;;;7.70;4.17;;;;;;;;;;4850403;29;20194;-81
2021/01/01 15:19:01;;;;;;;5.20;3.80;;;;;;;;;;4850418;29;20221;-81
2021/01/01 15:21:34;;;;;;;7.30;4.27;;;;;;;;;;4851290;29;20288;-81
2021/01/01 15:24:07;;;;;;;6.43;3.93;;;;;;;;;;4851575;29;20692;-82
2021/01/01 15:26:40;;;;;;;5.37;3.83;;;;;;;;;;4849526;29;20216;-81
2021/01/01 15:29:22;;;;;;;5.83;3.90;;;;;;;;;;4844653;29;20210;-81
2021/01/01 15:38:20;;;;;;;7.23;4.60;;;;;;;;;;5004536;23;20242;-81
2021/01/01 15:40:53;;;;;;;9.93;5.30;;;;;;;;;;4832901;29;20273;-81
2021/01/01 15:43:24;;;;;;;8.33;3.93;;;;;;;;;;4847818;29;20238;-82
2021/01/01 15:46:20;;;;;;;6.47;3.80;;;;;;;;;;4831695;29;20684;-84
2021/01/01 15:48:51;;;;;;;6.00;3.73;;;;;;;;;;4814503;29;20784;-81
2021/01/01 15:51:25;;;;;;;6.87;3.93;;;;;;;;;;4814875;29;20207;-81
2021/01/01 15:54:15;;;;;;;5.37;3.37;;;;;;;;;;4815962;29;20231;-81
2021/01/01 15:56:56;;;;;;;5.07;3.20;;;;;;;;;;4821058;29;20237;-81
2021/01/01 15:59:33;;;;;;;3.97;2.60;;;;;;;;;;4852126;29;20747;-81
2021/01/01 16:02:07;;;;;;;5.63;3.27;;;;;;;;;;4832097;29;20234;-81
2021/01/01 16:04:41;;;;;;;4.00;2.67;;;;;;;;;;4833127;29;20195;-81
2021/01/01 16:07:13;;;;;;;5.73;3.17;;;;;;;;;;4831479;29;20202;-81
2021/01/01 16:09:48;;;;;;;5.63;3.00;;;;;;;;;;4833080;29;20214;-81
2021/01/01 16:48:21;;;;;;;4.93;3.30;;;;;;;;;;4859545;29;20233;-81
2021/01/01 16:51:38;;;;;;;5.50;3.60;;;;;;;;;;4833718;29;20193;-81
2021/01/01 17:11:08;;;;;;;7.83;3.77;;;;;;;;;;5032676;23;20242;-80
2021/01/01 17:17:10;;;;;;;6.47;3.57;;;;;;;;;;5314588;23;20708;-81
2021/01/01 17:19:41;;;;;;;4.70;3.27;;;;;;;;;;4862471;29;20625;-79
2021/01/01 17:22:12;;;;;;;3.80;3.23;;;;;;;;;;4850645;29;20237;-79
2021/01/01 17:25:38;;;;;;;5.97;3.57;;;;;;;;;;4845124;29;20213;-80
2021/01/01 17:28:12;;;;;;;4.30;2.60;;;;;;;;;;4833985;29;20216;-80
2021/01/01 17:30:44;;;;;;;3.57;1.93;;;;;;;;;;4847716;29;20195;-78
2021/01/01 17:33:15;;;;;;;4.87;3.00;;;;;;;;;;4862959;29;20234;-80
2021/01/01 17:35:46;;;;;;;3.20;2.00;;;;;;;;;;4853675;29;20186;-81
2021/01/01 17:38:17;;;;;;;3.10;2.10;;;;;;;;;;4852136;29;20214;-80
2021/01/01 17:44:27;;;;;;;4.70;2.20;;;;;;;;;;4852323;29;20191;-84
2021/01/01 17:53:19;;;;;;;4.10;2.33;;;;;;;;;;5122526;23;20707;-79
2021/01/01 17:55:51;;;;;;;4.20;2.67;;;;;;;;;;4846467;29;20240;-80
2021/01/01 17:58:41;;;;;;;4.77;2.30;;;;;;;;;;4880423;29;20225;-80
2021/01/01 18:01:14;;;;;;;2.97;2.33;;;;;;;;;;4848869;29;20205;-79
2021/01/01 18:03:46;;;;;;;4.37;2.60;;;;;;;;;;4818551;29;20229;-79
2021/01/01 18:06:18;;;;;;;9.30;3.43;;;;;;;;;;4833841;29;20681;-80
2021/01/01 18:08:51;;;;;;;4.60;2.97;;;;;;;;;;4842564;29;20200;-80
2021/01/01 18:11:25;;;;;;;6.03;3.90;;;;;;;;;;4851502;29;20194;-80
2021/01/01 18:14:26;;;;;;;6.93;4.30;;;;;;;;;;4851546;29;20233;-79
2021/01/01 18:17:05;;;;;;;8.83;4.37;;;;;;;;;;4852148;29;20194;-81
2021/01/01 18:19:38;;;;;;;8.90;5.00;;;;;;;;;;4851469;29;20579;-80
2021/01/01 18:26:09;;;;;;;8.40;5.13;;;;;;;;;;4848630;29;20668;-80
2021/01/01 18:46:26;;;;;;;8.37;4.97;;;;;;;;;;4969475;23;20592;-80
2021/01/01 18:48:59;;;;;;;9.43;4.87;;;;;;;;;;4814486;29;20654;-80
2021/01/01 18:51:47;;;;;;;8.83;5.23;;;;;;;;;;4814546;29;20230;-81
2021/01/01 18:54:18;;;;;;;8.00;4.77;;;;;;;;;;4814476;29;20203;-80
2021/01/01 18:56:52;;;;;;;10.73;6.80;;;;;;;;;;4814159;29;20199;-80
2021/01/01 18:59:45;;;;;;;8.97;5.37;;;;;;;;;;4828743;29;20226;-80
2021/01/01 19:03:05;;;;;;;9.13;5.13;;;;;;;;;;4813826;29;20257;-80
2021/01/01 19:05:58;;;;;;;9.10;5.80;;;;;;;;;;4814396;29;20211;-80
2021/01/01 19:08:38;;;;;;;9.97;5.80;;;;;;;;;;4825448;29;20212;-79
2021/01/01 19:11:20;;;;;;;8.47;5.07;;;;;;;;;;4813394;29;20209;-80
2021/01/01 19:13:54;;;;;;;9.87;5.73;;;;;;;;;;4828211;29;20223;-78
2021/01/01 19:20:49;;;;;;;8.43;4.93;;;;;;;;;;4826247;29;20222;-80
2021/01/01 19:39:29;;;;;;;7.83;4.60;;;;;;;;;;4816263;29;20244;-81
2021/01/01 19:42:16;;;;;;;6.53;4.43;;;;;;;;;;4816491;29;20230;-81
2021/01/01 19:45:19;;;;;;;6.73;4.00;;;;;;;;;;4794301;29;20231;-81
2021/01/01 19:48:42;;;;;;;6.50;4.00;;;;;;;;;;4795480;29;20214;-79
2021/01/01 19:51:26;;;;;;;4.70;3.20;;;;;;;;;;4795485;29;20195;-82
2021/01/01 20:23:11;;;;;;;4.57;3.50;;;;;;;;;;5853482;23;21298;-79
2021/01/01 20:26:03;;;;;;;5.63;3.83;;;;;;;;;;4827686;29;20241;-80
2021/01/01 20:28:38;;;;;;;5.40;3.57;;;;;;;;;;4830596;29;20221;-79
2021/01/01 20:31:11;;;;;;;7.97;3.70;;;;;;;;;;4846026;29;20236;-79
2021/01/01 20:34:08;;;;;;;5.10;3.53;;;;;;;;;;4830930;29;20222;-79
2021/01/01 20:36:48;;;;;;;8.00;4.23;;;;;;;;;;4830678;29;20206;-80
2021/01/01 20:40:01;;;;;;;6.63;4.10;;;;;;;;;;4830651;29;20293;-80
2021/01/01 20:43:38;;;;;;;6.80;4.47;;;;;;;;;;4820451;29;20237;-80
2021/01/01 21:37:19;;;;;;;8.60;4.87;;;;;;;;;;4941733;23;20275;-94
2021/01/01 21:40:14;;;;;;;9.67;5.47;;;;;;;;;;4862920;29;20231;-91
2021/01/01 21:42:59;;;;;;;6.77;4.40;;;;;;;;;;4842495;29;20241;-93
2021/01/01 21:45:47;;;;;;;8.03;4.77;;;;;;;;;;4855885;29;20334;-91
2021/01/01 21:48:40;;;;;;;6.97;4.87;;;;;;;;;;4838795;29;20233;-91
2021/01/01 21:51:08;;;;;;;6.60;4.80;;;;;;;;;;4852736;29;20256;-93
2021/01/01 21:53:37;;;;;;;7.80;4.73;;;;;;;;;;4842271;29;20228;-92
2021/01/01 21:56:07;;;;;;;6.70;4.60;;;;;;;;;;4868888;29;20398;-93
2021/01/01 21:58:35;;;;;;;7.80;5.20;;;;;;;;;;4861355;29;20230;-91
2021/01/01 22:01:04;;;;;;;7.67;4.90;;;;;;;;;;4848347;29;20276;-91
2021/01/01 22:03:33;;;;;;;7.57;5.10;;;;;;;;;;4862124;29;20469;-92
2021/01/01 22:06:02;;;;;;;9.23;5.23;;;;;;;;;;4883453;29;20252;-92
2021/01/01 22:08:30;;;;;;;8.53;5.00;;;;;;;;;;4846767;29;20228;-91
2021/01/01 22:10:59;;;;;;;7.20;5.07;;;;;;;;;;4855023;29;20214;-93
2021/01/01 22:13:26;;;;;;;6.63;4.57;;;;;;;;;;4850371;29;20245;-92
2021/01/01 22:15:54;;;;;;;8.23;5.43;;;;;;;;;;4855617;29;20237;-92
2021/01/01 22:18:22;;;;;;;7.90;4.63;;;;;;;;;;4855294;29;20252;-93
2021/01/01 22:20:50;;;;;;;7.43;5.23;;;;;;;;;;4836163;29;20235;-93
2021/01/01 22:23:18;;;;;;;7.37;5.10;;;;;;;;;;4855013;29;20220;-94
2021/01/01 22:25:46;;;;;;;8.03;4.60;;;;;;;;;;4837380;29;20219;-93
2021/01/01 22:28:15;;;;;;;9.57;5.73;;;;;;;;;;4849875;29;20234;-91
2021/01/01 22:30:43;;;;;;;8.30;4.77;;;;;;;;;;4846371;29;20228;-93
2021/01/01 22:33:13;;;;;;;7.40;4.60;;;;;;;;;;4859066;29;20237;-92
2021/01/01 22:35:42;;;;;;;8.50;5.23;;;;;;;;;;4860569;29;20221;-92
2021/01/01 22:38:10;;;;;;;10.77;5.30;;;;;;;;;;4835645;29;20221;-92
2021/01/01 22:40:38;;;;;;;6.93;4.63;;;;;;;;;;4842539;29;20238;-93
2021/01/01 22:43:06;;;;;;;8.10;5.23;;;;;;;;;;4849226;29;20236;-92
2021/01/01 22:45:37;;;;;;;9.93;5.10;;;;;;;;;;4854463;29;20231;-93
2021/01/01 22:48:06;;;;;;;7.47;4.47;;;;;;;;;;4842064;29;20229;-93
2021/01/01 22:50:34;;;;;;;8.37;4.90;;;;;;;;;;4845568;29;20228;-93
2021/01/01 22:53:02;;;;;;;8.50;5.00;;;;;;;;;;4880774;29;20384;-93
2021/01/01 22:55:30;;;;;;;8.07;4.27;;;;;;;;;;4851862;29;20218;-93
2021/01/01 22:58:03;;;;;;;10.50;4.70;;;;;;;;;;4836612;29;20218;-92
2021/01/01 23:00:32;;;;;;;8.43;5.67;;;;;;;;;;4860518;29;20214;-92
2021/01/01 23:03:03;;;;;;;6.67;4.53;;;;;;;;;;4863760;29;20236;-93
2021/01/01 23:05:32;;;;;;;8.77;4.90;;;;;;;;;;4856099;29;20214;-92
2021/01/01 23:08:00;;;;;;;8.27;4.77;;;;;;;;;;4864165;29;20226;-92
2021/01/01 23:10:30;;;;;;;8.53;5.20;;;;;;;;;;4848726;29;20230;-92
2021/01/01 23:12:58;;;;;;;8.47;5.60;;;;;;;;;;4848516;29;20214;-92
2021/01/01 23:15:27;;;;;;;7.53;4.93;;;;;;;;;;4839649;29;20222;-92
2021/01/01 23:17:57;;;;;;;8.03;4.87;;;;;;;;;;4853507;29;20410;-92
2021/01/01 23:20:29;;;;;;;9.23;5.43;;;;;;;;;;4851566;29;20248;-92
2021/01/01 23:22:59;;;;;;;7.33;4.80;;;;;;;;;;4835282;29;20230;-91
2021/01/01 23:25:29;;;;;;;8.33;4.80;;;;;;;;;;4838504;29;20218;-91
2021/01/01 23:28:33;;;;;;;8.83;4.80;;;;;;;;;;4879233;29;20242;-92
2021/01/01 23:31:19;;;;;;;8.57;5.23;;;;;;;;;;4854111;29;20226;-91
2021/01/01 23:34:05;;;;;;;8.97;6.00;;;;;;;;;;4853095;29;20210;-92
2021/01/01 23:36:36;;;;;;;7.67;4.80;;;;;;;;;;4849928;29;20228;-91
2021/01/01 23:39:07;;;;;;;8.43;5.50;;;;;;;;;;4848014;29;20242;-93
2021/01/01 23:41:37;;;;;;;7.33;4.87;;;;;;;;;;4846379;29;20256;-92
2021/01/01 23:44:18;;;;;;;8.87;5.10;;;;;;;;;;4858110;29;20238;-93
2021/01/01 23:46:52;;;;;;;7.83;4.97;;;;;;;;;;4849707;29;20213;-92
2021/01/01 23:49:23;;;;;;;8.20;5.30;;;;;;;;;;4839619;29;20218;-93
2021/01/01 23:51:54;;;;;;;8.97;5.53;;;;;;;;;;4857980;29;20221;-94
2021/01/01 23:54:24;;;;;;;8.50;5.10;;;;;;;;;;4860931;29;20221;-92
2021/01/01 23:56:53;;;;;;;9.77;5.50;;;;;;;;;;4838880;29;20222;-93
2021/01/01 23:59:21;;;;;;;8.20;5.10;;;;;;;;;;4844177;29;20229;-92
